createdAt,value
2023-11-12T00:00:13.262Z,7.74
2023-11-12T00:02:40.579Z,7.67
2023-11-12T00:05:12.824Z,7.79
2023-11-12T00:07:40.124Z,7.69
2023-11-12T00:10:12.919Z,7.73
2023-11-12T00:12:43.290Z,7.69
2023-11-12T00:15:10.895Z,7.75
2023-11-12T00:17:42.162Z,7.75
2023-11-12T00:20:16.500Z,7.63
2023-11-12T00:22:44.891Z,7.68
2023-11-12T00:25:14.069Z,7.65
2023-11-12T00:27:41.690Z,7.60
2023-11-12T00:30:10.656Z,7.64
2023-11-12T00:32:38.311Z,7.65
2023-11-12T00:35:06.371Z,7.57
2023-11-12T00:37:33.979Z,7.58
2023-11-12T00:40:01.581Z,7.56
2023-11-12T00:42:28.831Z,7.56
2023-11-12T00:44:56.387Z,7.56
2023-11-12T00:47:23.852Z,7.49
2023-11-12T00:49:52.469Z,7.57
2023-11-12T00:52:19.662Z,7.55
2023-11-12T00:54:46.842Z,7.57
2023-11-12T00:57:14.185Z,7.52
2023-11-12T00:59:42.109Z,7.58
2023-11-12T01:02:12.009Z,7.62
2023-11-12T01:04:39.189Z,7.53
2023-11-12T01:07:06.412Z,7.57
2023-11-12T01:09:35.857Z,7.51
2023-11-12T01:12:03.339Z,7.58
2023-11-12T01:14:30.542Z,7.54
2023-11-12T01:16:57.768Z,7.53
2023-11-12T01:19:24.950Z,7.56
2023-11-12T01:21:52.160Z,7.50
2023-11-12T01:24:20.947Z,7.52
2023-11-12T01:26:48.157Z,7.57
2023-11-12T01:29:15.583Z,7.50
2023-11-12T01:31:42.872Z,7.63
2023-11-12T01:34:10.131Z,7.54
2023-11-12T01:36:37.343Z,7.55
2023-11-12T01:39:08.590Z,7.56
2023-11-12T01:41:36.263Z,7.44
2023-11-12T01:44:03.826Z,7.48
2023-11-12T01:46:31.889Z,7.49
2023-11-12T01:49:00.933Z,7.56
2023-11-12T01:51:30.869Z,7.50
2023-11-12T01:54:00.326Z,7.53
2023-11-12T01:56:27.969Z,7.50
2023-11-12T01:58:58.769Z,7.44
2023-11-12T02:01:26.138Z,7.47
2023-11-12T02:03:54.337Z,7.54
2023-11-12T02:06:21.715Z,7.55
2023-11-12T02:08:48.933Z,7.51
2023-11-12T02:11:16.926Z,7.62
2023-11-12T02:13:44.687Z,7.53
2023-11-12T02:16:12.166Z,7.59
2023-11-12T02:18:45.024Z,7.51
2023-11-12T02:21:12.176Z,7.55
2023-11-12T02:23:39.816Z,7.56
2023-11-12T02:26:06.994Z,7.48
2023-11-12T02:28:34.231Z,7.49
2023-11-12T02:31:01.593Z,7.44
2023-11-12T02:33:29.295Z,7.56
2023-11-12T02:35:57.107Z,7.50
2023-11-12T02:38:25.578Z,7.47
2023-11-12T02:40:52.919Z,7.58
2023-11-12T02:43:21.222Z,7.56
2023-11-12T02:45:48.993Z,7.56
2023-11-12T02:48:16.697Z,7.57
2023-11-12T02:50:44.412Z,7.53
2023-11-12T02:53:13.046Z,7.55
2023-11-12T02:55:43.101Z,7.60
2023-11-12T02:58:11.367Z,7.51
2023-11-12T03:00:39.238Z,7.46
2023-11-12T03:03:06.648Z,7.47
2023-11-12T03:05:33.953Z,7.49
2023-11-12T03:08:01.219Z,7.42
2023-11-12T03:10:29.230Z,7.47
2023-11-12T03:12:56.444Z,7.44
2023-11-12T03:15:25.375Z,7.43
2023-11-12T03:17:53.765Z,7.36
2023-11-12T03:20:21.410Z,7.38
2023-11-12T03:22:48.647Z,7.42
2023-11-12T03:25:16.125Z,7.39
2023-11-12T03:27:43.514Z,7.45
2023-11-12T03:30:11.899Z,7.42
2023-11-12T03:32:39.485Z,7.43
2023-11-12T03:35:07.656Z,7.48
2023-11-12T03:37:34.890Z,7.41
2023-11-12T03:40:02.130Z,7.55
2023-11-12T03:42:29.377Z,7.41
2023-11-12T03:44:58.157Z,7.47
2023-11-12T03:47:25.995Z,7.46
2023-11-12T03:49:53.195Z,7.50
2023-11-12T03:52:20.355Z,7.43
2023-11-12T03:54:47.595Z,7.43
2023-11-12T03:57:15.567Z,7.44
2023-11-12T03:59:42.884Z,7.41
2023-11-12T04:02:10.121Z,7.49
2023-11-12T04:04:37.580Z,7.49
2023-11-12T04:07:05.171Z,7.42
2023-11-12T04:09:32.411Z,7.51
2023-11-12T04:11:59.674Z,7.48
2023-11-12T04:14:26.892Z,7.46
2023-11-12T04:16:54.111Z,7.49
2023-11-12T04:19:21.302Z,7.44
2023-11-12T04:21:48.978Z,7.51
2023-11-12T04:24:16.527Z,7.59
2023-11-12T04:26:44.293Z,7.51
2023-11-12T04:29:14.278Z,7.56
2023-11-12T04:31:41.695Z,7.47
2023-11-12T04:34:08.925Z,7.55
2023-11-12T04:36:39.098Z,7.54
2023-11-12T04:39:08.483Z,7.54
2023-11-12T04:41:35.710Z,7.47
2023-11-12T04:44:02.881Z,7.49
2023-11-12T04:46:31.267Z,7.55
2023-11-12T04:48:59.885Z,7.53
2023-11-12T04:51:27.891Z,7.50
2023-11-12T04:53:55.352Z,7.41
2023-11-12T04:56:22.595Z,7.44
2023-11-12T04:58:50.453Z,7.41
2023-11-12T05:01:18.200Z,7.45
2023-11-12T05:03:46.945Z,7.36
2023-11-12T05:06:15.493Z,7.41
2023-11-12T05:08:43.223Z,7.36
2023-11-12T05:11:10.466Z,7.44
2023-11-12T05:13:38.277Z,7.40
2023-11-12T05:16:06.202Z,7.44
2023-11-12T05:18:33.406Z,7.41
2023-11-12T05:21:00.580Z,7.44
2023-11-12T05:23:28.064Z,7.40
2023-11-12T05:25:59.312Z,7.39
2023-11-12T05:28:28.290Z,7.33
2023-11-12T05:30:58.547Z,7.31
2023-11-12T05:33:25.852Z,7.32
2023-11-12T05:35:53.038Z,7.28
2023-11-12T05:38:20.213Z,7.30
2023-11-12T05:40:47.531Z,7.40
2023-11-12T05:43:14.792Z,7.34
2023-11-12T05:45:42.000Z,7.26
2023-11-12T05:48:11.661Z,7.24
2023-11-12T05:50:39.617Z,7.31
2023-11-12T05:53:06.813Z,7.37
2023-11-12T05:55:34.173Z,7.30
2023-11-12T05:58:01.469Z,7.34
2023-11-12T06:00:28.842Z,7.29
2023-11-12T06:02:56.759Z,7.34
2023-11-12T06:05:23.985Z,7.25
2023-11-12T06:07:51.163Z,7.30
2023-11-12T06:10:18.719Z,7.33
2023-11-12T06:12:45.982Z,7.24
2023-11-12T06:15:13.544Z,7.20
2023-11-12T06:17:40.817Z,7.19
2023-11-12T06:20:08.721Z,7.24
2023-11-12T06:22:35.960Z,7.16
2023-11-12T06:25:03.684Z,7.09
2023-11-12T06:27:30.924Z,7.22
2023-11-12T06:29:58.969Z,7.28
2023-11-12T06:32:26.179Z,7.21
2023-11-12T06:34:53.462Z,7.25
2023-11-12T06:37:20.694Z,7.25
2023-11-12T06:39:47.946Z,7.22
2023-11-12T06:42:15.773Z,7.19
2023-11-12T06:44:43.376Z,7.23
2023-11-12T06:47:10.561Z,7.22
2023-11-12T06:49:37.711Z,7.21
2023-11-12T06:52:05.476Z,7.25
2023-11-12T06:54:32.692Z,7.24
2023-11-12T06:57:00.832Z,7.18
2023-11-12T06:59:29.339Z,7.12
2023-11-12T07:01:56.567Z,7.13
2023-11-12T07:04:24.397Z,7.02
2023-11-12T07:07:01.929Z,7.07
2023-11-12T07:09:36.889Z,7.08
2023-11-12T07:12:05.600Z,7.11
2023-11-12T07:14:33.005Z,7.10
2023-11-12T07:17:00.576Z,7.08
2023-11-12T07:19:27.922Z,7.11
2023-11-12T07:21:55.518Z,7.16
2023-11-12T07:24:22.838Z,7.16
2023-11-12T07:26:50.130Z,7.18
2023-11-12T07:29:17.388Z,7.22
2023-11-12T07:31:44.667Z,7.19
2023-11-12T07:34:11.976Z,7.23
2023-11-12T07:36:39.219Z,7.21
2023-11-12T07:39:08.131Z,7.21
2023-11-12T07:41:35.828Z,7.36
2023-11-12T07:44:03.578Z,7.32
2023-11-12T07:46:30.852Z,7.32
2023-11-12T07:48:58.471Z,7.27
2023-11-12T07:51:25.829Z,7.36
2023-11-12T07:53:53.174Z,7.43
2023-11-12T07:56:24.687Z,7.47
2023-11-12T07:58:55.135Z,7.52
2023-11-12T08:01:22.351Z,7.54
2023-11-12T08:03:49.611Z,7.49
2023-11-12T08:06:16.910Z,7.51
2023-11-12T08:08:44.122Z,7.59
2023-11-12T08:11:11.316Z,7.64
2023-11-12T08:13:39.977Z,7.58
2023-11-12T08:16:09.195Z,7.76
2023-11-12T08:18:38.079Z,7.79
2023-11-12T08:21:06.626Z,7.77
2023-11-12T08:23:33.862Z,7.95
2023-11-12T08:26:03.283Z,7.86
2023-11-12T08:28:30.754Z,7.86
2023-11-12T08:30:58.001Z,7.98
2023-11-12T08:33:25.298Z,7.98
2023-11-12T08:35:53.512Z,7.95
2023-11-12T08:38:20.821Z,7.83
2023-11-12T08:40:48.032Z,7.95
2023-11-12T08:43:15.930Z,7.87
2023-11-12T08:45:43.216Z,7.88
2023-11-12T08:48:10.488Z,7.97
2023-11-12T08:50:37.757Z,8.03
2023-11-12T08:53:05.017Z,7.85
2023-11-12T08:55:32.790Z,7.89
2023-11-12T08:58:00.085Z,7.84
2023-11-12T09:00:27.293Z,7.81
2023-11-12T09:02:54.614Z,7.81
2023-11-12T09:05:21.939Z,7.85
2023-11-12T09:07:49.139Z,7.91
2023-11-12T09:10:16.330Z,7.92
2023-11-12T09:12:43.678Z,7.99
2023-11-12T09:15:12.293Z,7.91
2023-11-12T09:17:39.612Z,8.04
2023-11-12T09:20:14.515Z,8.15
2023-11-12T09:22:41.931Z,8.33
2023-11-12T09:25:12.078Z,8.16
2023-11-12T09:27:39.738Z,8.25
2023-11-12T09:30:09.682Z,8.32
2023-11-12T09:32:37.215Z,8.20
2023-11-12T09:35:07.050Z,8.24
2023-11-12T09:37:34.392Z,8.39
2023-11-12T09:40:02.324Z,8.20
2023-11-12T09:42:30.188Z,8.28
2023-11-12T09:45:00.632Z,8.39
2023-11-12T09:48:04.391Z,8.38
2023-11-12T09:50:32.415Z,8.50
2023-11-12T09:53:04.254Z,8.56
2023-11-12T09:55:32.058Z,8.58
2023-11-12T09:58:02.601Z,8.43
2023-11-12T10:00:35.507Z,8.42
2023-11-12T10:03:07.108Z,8.61
2023-11-12T10:05:35.845Z,8.59
2023-11-12T10:08:05.844Z,8.45
2023-11-12T10:10:34.687Z,8.55
2023-11-12T10:13:05.491Z,8.69
2023-11-12T10:15:35.145Z,8.70
2023-11-12T10:18:04.845Z,8.66
2023-11-12T10:20:40.982Z,8.64
2023-11-12T10:23:32.621Z,8.87
2023-11-12T10:26:00.935Z,8.91
2023-11-12T10:28:35.238Z,8.95
2023-11-12T10:31:03.147Z,8.83
2023-11-12T10:33:30.768Z,8.82
2023-11-12T10:36:08.979Z,8.68
2023-11-12T10:38:53.239Z,8.67
2023-11-12T10:41:20.707Z,8.79
2023-11-12T10:44:00.107Z,8.86
2023-11-12T10:46:29.357Z,8.68
2023-11-12T10:48:57.130Z,8.70
2023-11-12T10:51:26.535Z,8.70
2023-11-12T10:53:57.623Z,8.65
2023-11-12T10:56:25.566Z,8.77
2023-11-12T10:58:57.616Z,8.59
2023-11-12T11:01:27.166Z,8.60
2023-11-12T11:03:55.774Z,8.79
2023-11-12T11:06:25.755Z,8.76
2023-11-12T11:08:52.943Z,8.59
2023-11-12T11:11:22.368Z,8.59
2023-11-12T11:13:49.632Z,8.63
2023-11-12T11:16:48.681Z,8.54
2023-11-12T11:19:16.069Z,8.59
2023-11-12T11:22:22.243Z,8.52
2023-11-12T11:24:49.460Z,8.54
2023-11-12T11:27:20.059Z,8.52
2023-11-12T11:30:15.209Z,8.71
2023-11-12T11:32:58.760Z,8.70
2023-11-12T11:35:27.836Z,8.69
2023-11-12T11:38:07.056Z,8.76
2023-11-12T11:40:35.872Z,8.86
2023-11-12T11:43:24.698Z,8.91
2023-11-12T11:46:14.503Z,9.03
2023-11-12T11:48:44.743Z,9.07
2023-11-12T11:51:39.090Z,8.94
2023-11-12T11:54:07.742Z,9.12
2023-11-12T11:56:35.354Z,9.21
2023-11-12T11:59:03.058Z,9.19
2023-11-12T12:01:30.612Z,9.26
2023-11-12T12:04:07.119Z,9.30
2023-11-12T12:06:34.759Z,9.38
2023-11-12T12:09:02.166Z,9.32
2023-11-12T12:11:29.409Z,9.55
2023-11-12T12:14:01.908Z,9.59
2023-11-12T12:16:34.504Z,9.42
2023-11-12T12:19:03.447Z,9.39
2023-11-12T12:21:35.322Z,9.49
2023-11-12T12:24:07.140Z,9.54
2023-11-12T12:26:34.988Z,9.48
2023-11-12T12:29:02.170Z,9.56
2023-11-12T12:31:29.977Z,9.39
2023-11-12T12:34:09.384Z,9.41
2023-11-12T12:36:37.663Z,9.29
2023-11-12T12:39:13.516Z,9.35
2023-11-12T12:41:40.779Z,9.34
2023-11-12T12:44:28.852Z,9.29
2023-11-12T12:46:56.421Z,9.39
2023-11-12T12:49:34.768Z,9.35
2023-11-12T12:52:04.141Z,9.47
2023-11-12T12:54:32.076Z,9.61
2023-11-12T12:57:00.609Z,9.56
2023-11-12T12:59:36.272Z,9.39
2023-11-12T13:02:04.875Z,9.40
2023-11-12T13:04:34.109Z,9.54
2023-11-12T13:07:03.052Z,9.57
2023-11-12T13:09:33.020Z,9.43
2023-11-12T13:12:00.350Z,9.56
2023-11-12T13:14:27.526Z,9.50
2023-11-12T13:16:55.644Z,9.44
2023-11-12T13:19:24.444Z,9.35
2023-11-12T13:21:57.381Z,9.47
2023-11-12T13:24:30.445Z,9.45
2023-11-12T13:26:58.880Z,9.36
2023-11-12T13:29:28.309Z,9.51
2023-11-12T13:31:57.673Z,9.39
2023-11-12T13:34:25.283Z,9.40
2023-11-12T13:36:52.772Z,9.42
2023-11-12T13:39:20.165Z,9.43
2023-11-12T13:41:48.086Z,9.39
2023-11-12T13:44:16.460Z,9.34
2023-11-12T13:46:44.105Z,9.28
2023-11-12T13:49:11.898Z,9.32
2023-11-12T13:51:42.286Z,9.28
2023-11-12T13:54:11.522Z,9.26
2023-11-12T13:56:40.190Z,9.29
2023-11-12T13:59:09.938Z,9.23
2023-11-12T14:01:37.164Z,9.21
2023-11-12T14:04:08.707Z,9.22
2023-11-12T14:06:37.400Z,9.21
2023-11-12T14:09:05.155Z,9.22
2023-11-12T14:11:33.784Z,9.20
2023-11-12T14:14:01.425Z,9.23
2023-11-12T14:16:29.961Z,9.24
2023-11-12T14:18:57.230Z,9.25
2023-11-12T14:21:25.148Z,9.24
2023-11-12T14:23:52.414Z,9.31
2023-11-12T14:26:21.260Z,9.33
2023-11-12T14:28:50.278Z,9.28
2023-11-12T14:31:21.693Z,9.18
2023-11-12T14:33:50.384Z,9.20
2023-11-12T14:36:17.711Z,9.16
2023-11-12T14:38:44.942Z,9.15
2023-11-12T14:41:12.298Z,9.20
2023-11-12T14:43:40.970Z,9.10
2023-11-12T14:46:09.058Z,9.12
2023-11-12T14:48:36.409Z,9.18
2023-11-12T14:51:06.472Z,9.15
2023-11-12T14:53:34.013Z,9.09
2023-11-12T14:56:01.329Z,9.17
2023-11-12T14:58:28.542Z,9.02
2023-11-12T15:00:55.943Z,9.05
2023-11-12T15:03:26.286Z,9.10
2023-11-12T15:05:53.592Z,9.04
2023-11-12T15:08:21.037Z,9.04
2023-11-12T15:10:48.620Z,8.93
2023-11-12T15:13:15.766Z,9.02
2023-11-12T15:15:43.329Z,8.97
2023-11-12T15:18:14.195Z,8.89
2023-11-12T15:20:43.082Z,8.89
2023-11-12T15:23:10.270Z,8.90
2023-11-12T15:25:39.148Z,8.96
2023-11-12T15:28:06.415Z,8.90
2023-11-12T15:30:34.584Z,8.88
2023-11-12T15:33:01.937Z,8.96
2023-11-12T15:35:29.163Z,9.09
2023-11-12T15:37:56.378Z,8.98
2023-11-12T15:40:24.552Z,9.02
2023-11-12T15:42:56.682Z,9.05
2023-11-12T15:45:26.782Z,8.96
2023-11-12T15:47:54.729Z,8.98
2023-11-12T15:50:30.249Z,9.01
2023-11-12T15:53:01.451Z,8.98
2023-11-12T15:55:29.133Z,8.93
2023-11-12T15:57:56.448Z,8.86
2023-11-12T16:00:25.209Z,8.80
2023-11-12T16:02:56.939Z,8.78
2023-11-12T16:05:28.947Z,8.77
2023-11-12T16:07:57.480Z,8.84
2023-11-12T16:10:24.654Z,8.80
2023-11-12T16:12:51.964Z,8.63
2023-11-12T16:15:20.163Z,8.61
2023-11-12T16:17:49.678Z,8.63
2023-11-12T16:20:17.063Z,8.67
2023-11-12T16:22:47.646Z,8.56
2023-11-12T16:25:15.389Z,8.61
2023-11-12T16:27:42.688Z,8.58
2023-11-12T16:30:10.630Z,8.55
2023-11-12T16:32:37.919Z,8.69
2023-11-12T16:35:07.138Z,8.70
2023-11-12T16:37:34.470Z,8.64
2023-11-12T16:40:01.955Z,8.70
2023-11-12T16:42:29.397Z,8.66
2023-11-12T16:44:57.747Z,8.67
2023-11-12T16:47:25.375Z,8.70
2023-11-12T16:49:54.654Z,8.63
2023-11-12T16:52:22.773Z,8.63
2023-11-12T16:54:50.194Z,8.62
2023-11-12T16:57:17.609Z,8.62
2023-11-12T16:59:44.813Z,8.58
2023-11-12T17:02:14.951Z,8.61
2023-11-12T17:04:42.539Z,8.76
2023-11-12T17:07:12.139Z,8.62
2023-11-12T17:09:41.979Z,8.60
2023-11-12T17:12:13.707Z,8.65
2023-11-12T17:14:44.126Z,8.60
2023-11-12T17:17:12.489Z,8.61
2023-11-12T17:19:39.736Z,8.62
2023-11-12T17:22:08.704Z,8.65
2023-11-12T17:24:36.705Z,8.63
2023-11-12T17:27:05.964Z,8.64
2023-11-12T17:29:33.294Z,8.56
2023-11-12T17:32:00.534Z,8.54
2023-11-12T17:34:27.702Z,8.52
2023-11-12T17:37:04.481Z,8.62
2023-11-12T17:39:31.688Z,8.62
2023-11-12T17:41:59.037Z,8.61
2023-11-12T17:44:26.304Z,8.63
2023-11-12T17:46:58.100Z,8.53
2023-11-12T17:49:25.592Z,8.59
2023-11-12T17:51:52.803Z,8.51
2023-11-12T17:54:20.307Z,8.48
2023-11-12T17:56:48.931Z,8.48
2023-11-12T17:59:16.815Z,8.44
2023-11-12T18:01:44.343Z,8.42
2023-11-12T18:04:11.821Z,8.41
2023-11-12T18:06:44.067Z,8.43
2023-11-12T18:09:12.807Z,8.43
2023-11-12T18:11:40.077Z,8.50
2023-11-12T18:14:07.286Z,8.43
2023-11-12T18:16:37.929Z,8.47
2023-11-12T18:19:05.225Z,8.44
2023-11-12T18:21:32.556Z,8.43
2023-11-12T18:24:01.313Z,8.41
2023-11-12T18:26:30.231Z,8.34
2023-11-12T18:28:57.569Z,8.39
2023-11-12T18:31:26.103Z,8.43
2023-11-12T18:33:53.681Z,8.31
2023-11-12T18:36:20.938Z,8.38
2023-11-12T18:38:48.102Z,8.38
2023-11-12T18:41:15.692Z,8.36
2023-11-12T18:43:42.861Z,8.39
2023-11-12T18:46:10.242Z,8.40
2023-11-12T18:48:41.166Z,8.42
2023-11-12T18:51:08.513Z,8.42
2023-11-12T18:53:35.886Z,8.29
2023-11-12T18:56:08.132Z,8.34
2023-11-12T18:58:35.908Z,8.36
2023-11-12T19:01:04.060Z,8.24
2023-11-12T19:03:31.349Z,8.36
2023-11-12T19:05:58.687Z,8.40
2023-11-12T19:08:25.828Z,8.29
2023-11-12T19:10:53.056Z,8.29
2023-11-12T19:13:20.296Z,8.40
2023-11-12T19:15:47.606Z,8.46
2023-11-12T19:18:14.914Z,8.40
2023-11-12T19:20:42.182Z,8.42
2023-11-12T19:23:09.802Z,8.34
2023-11-12T19:25:40.300Z,8.36
2023-11-12T19:28:07.628Z,8.37
2023-11-12T19:30:35.842Z,8.34
2023-11-12T19:33:03.607Z,8.44
2023-11-12T19:35:31.948Z,8.34
2023-11-12T19:37:59.324Z,8.38
2023-11-12T19:40:26.904Z,8.15
2023-11-12T19:42:54.464Z,8.20
2023-11-12T19:45:22.755Z,8.33
2023-11-12T19:47:55.065Z,8.18
2023-11-12T19:50:23.549Z,8.28
2023-11-12T19:52:51.138Z,8.31
2023-11-12T19:55:20.346Z,8.21
2023-11-12T19:57:52.706Z,8.32
2023-11-12T20:00:21.061Z,8.20
2023-11-12T20:02:51.195Z,8.19
2023-11-12T20:05:18.968Z,8.23
2023-11-12T20:07:46.172Z,8.31
2023-11-12T20:10:14.294Z,8.26
2023-11-12T20:12:41.857Z,8.35
2023-11-12T20:15:10.028Z,8.24
2023-11-12T20:17:39.104Z,8.32
2023-11-12T20:20:07.061Z,8.36
2023-11-12T20:22:34.283Z,8.28
2023-11-12T20:25:01.558Z,8.25
2023-11-12T20:27:28.955Z,8.26
2023-11-12T20:29:57.350Z,8.24
2023-11-12T20:32:25.339Z,8.04
2023-11-12T20:34:53.593Z,8.18
2023-11-12T20:37:20.893Z,8.03
2023-11-12T20:39:50.625Z,8.17
2023-11-12T20:42:17.917Z,8.15
2023-11-12T20:44:45.244Z,8.17
2023-11-12T20:47:13.615Z,8.19
2023-11-12T20:49:43.413Z,8.16
2023-11-12T20:52:10.946Z,8.05
2023-11-12T20:54:38.488Z,8.01
2023-11-12T20:57:07.220Z,8.01
2023-11-12T20:59:34.800Z,7.94
2023-11-12T21:02:10.353Z,7.97
2023-11-12T21:04:45.988Z,7.99
2023-11-12T21:07:13.919Z,8.03
2023-11-12T21:09:42.790Z,8.08
2023-11-12T21:12:10.342Z,8.04
2023-11-12T21:14:38.561Z,7.95
2023-11-12T21:17:05.844Z,7.94
2023-11-12T21:19:34.924Z,7.92
2023-11-12T21:22:02.506Z,7.82
2023-11-12T21:24:30.227Z,7.75
2023-11-12T21:26:58.677Z,7.88
2023-11-12T21:29:26.512Z,7.91
2023-11-12T21:31:55.234Z,7.87
2023-11-12T21:34:23.016Z,7.78
2023-11-12T21:36:51.052Z,7.82
2023-11-12T21:39:20.309Z,7.78
2023-11-12T21:41:49.207Z,7.78
2023-11-12T21:44:18.844Z,7.74
2023-11-12T21:46:47.861Z,7.70
2023-11-12T21:49:15.838Z,7.67
2023-11-12T21:51:44.173Z,7.66
2023-11-12T21:54:11.899Z,7.71
2023-11-12T21:56:39.096Z,7.64
2023-11-12T21:59:06.973Z,7.58
2023-11-12T22:01:34.260Z,7.49
2023-11-12T22:04:03.163Z,7.52
2023-11-12T22:06:30.688Z,7.52
2023-11-12T22:08:57.900Z,7.40
2023-11-12T22:11:26.526Z,7.22
2023-11-12T22:13:54.680Z,7.31
2023-11-12T22:16:21.987Z,7.28
2023-11-12T22:18:49.263Z,7.17
2023-11-12T22:21:17.753Z,7.18
2023-11-12T22:23:45.426Z,7.12
2023-11-12T22:26:12.583Z,7.10
2023-11-12T22:28:39.867Z,7.03
2023-11-12T22:31:07.226Z,6.99
2023-11-12T22:33:34.505Z,7.03
2023-11-12T22:36:01.669Z,6.95
2023-11-12T22:38:28.830Z,6.94
2023-11-12T22:40:57.406Z,7.05
2023-11-12T22:43:26.010Z,7.09
2023-11-12T22:45:53.450Z,6.95
2023-11-12T22:48:20.657Z,6.97
2023-11-12T22:50:47.997Z,6.81
2023-11-12T22:53:16.246Z,6.93
2023-11-12T22:55:43.703Z,7.12
2023-11-12T22:58:11.325Z,7.13
2023-11-12T23:00:50.187Z,7.12
2023-11-12T23:03:18.719Z,7.15
2023-11-12T23:05:50.201Z,7.11
2023-11-12T23:08:17.408Z,7.07
2023-11-12T23:10:45.894Z,7.09
2023-11-12T23:13:14.365Z,7.21
2023-11-12T23:15:44.240Z,7.25
2023-11-12T23:18:12.997Z,7.28
2023-11-12T23:20:40.857Z,7.15
2023-11-12T23:23:08.205Z,7.11
2023-11-12T23:25:35.417Z,7.21
2023-11-12T23:28:02.723Z,7.25
2023-11-12T23:30:30.171Z,7.21
2023-11-12T23:32:57.652Z,7.14
2023-11-12T23:35:27.237Z,7.13
2023-11-12T23:37:54.806Z,7.13
2023-11-12T23:40:22.080Z,7.10
2023-11-12T23:42:49.482Z,7.12
2023-11-12T23:45:17.887Z,6.97
2023-11-12T23:47:45.104Z,7.08
2023-11-12T23:50:12.624Z,7.08
2023-11-12T23:52:39.965Z,6.97
2023-11-12T23:55:07.886Z,7.09
2023-11-12T23:57:35.861Z,7.00
